Time;durP1;ratioP1;P1;durP2;ratioP2;P2;SDS_P1;SDS_P2;PMS_P1;PMS_P2;Temp;Humidity;BMP_temperature;BMP_pressure;BME280_temperature;BME280_humidity;BME280_pressure;Samples;Min_cycle;Max_cycle;Signal;HPM_P1;HPM_P2
2022/07/25 00:02:25;;;;;;;9.65;7.30;;;19.70;96.40;;;;;;4999448;28;20052;-32
2022/07/25 00:04:50;;;;;;;8.75;7.47;;;19.60;96.70;;;;;;4999831;28;20041;-32
2022/07/25 00:07:16;;;;;;;11.25;7.63;;;19.50;97.60;;;;;;5004304;28;20407;-32
2022/07/25 00:09:42;;;;;;;8.35;7.05;;;19.40;98.40;;;;;;5004023;28;20030;-32
2022/07/25 00:12:07;;;;;;;9.45;7.60;;;19.40;98.10;;;;;;5006563;28;20025;-33
2022/07/25 00:14:33;;;;;;;8.38;7.15;;;19.50;99.10;;;;;;5004325;28;20037;-32
2022/07/25 00:16:59;;;;;;;9.95;7.65;;;19.50;98.60;;;;;;5003014;28;20144;-32
2022/07/25 00:19:25;;;;;;;12.57;8.23;;;19.50;97.90;;;;;;5006730;28;20057;-34
2022/07/25 00:21:50;;;;;;;10.90;8.15;;;19.40;99.60;;;;;;5005320;28;20084;-33
2022/07/25 00:24:16;;;;;;;8.55;7.65;;;19.40;97.60;;;;;;5003404;28;20119;-34
2022/07/25 00:26:42;;;;;;;9.50;7.82;;;19.40;97.50;;;;;;5005291;28;20038;-32
2022/07/25 00:29:07;;;;;;;8.25;6.93;;;19.40;96.70;;;;;;5003745;28;20084;-33
2022/07/25 00:31:33;;;;;;;8.65;6.78;;;19.30;97.40;;;;;;5005485;28;20052;-33
2022/07/25 00:33:59;;;;;;;9.75;7.50;;;19.30;97.70;;;;;;5005147;28;20030;-33
2022/07/25 00:36:24;;;;;;;10.60;8.18;;;19.30;99.90;;;;;;5002068;28;20034;-32
2022/07/25 00:38:50;;;;;;;9.57;7.78;;;19.10;99.90;;;;;;5000150;28;20034;-32
2022/07/25 00:41:15;;;;;;;10.10;7.93;;;19.20;98.80;;;;;;4999726;28;20093;-33
2022/07/25 00:43:43;;;;;;;10.50;7.43;;;19.20;99.60;;;;;;5003855;28;20022;-32
2022/07/25 00:46:12;;;;;;;12.20;8.17;;;19.10;98.20;;;;;;5001053;28;20018;-32
2022/07/25 00:48:38;;;;;;;10.23;7.97;;;19.10;98.30;;;;;;5001020;28;20287;-33
2022/07/25 00:51:05;;;;;;;9.30;7.70;;;19.10;99.10;;;;;;5002915;28;20744;-33
2022/07/25 00:53:30;;;;;;;10.25;8.60;;;19.00;99.20;;;;;;5001982;28;20080;-32
2022/07/25 00:55:56;;;;;;;10.35;7.90;;;18.90;99.90;;;;;;5004340;28;20492;-33
2022/07/25 00:58:22;;;;;;;8.57;7.43;;;18.60;99.90;;;;;;5005769;28;20064;-32
2022/07/25 01:00:48;;;;;;;9.10;8.10;;;18.50;99.90;;;;;;4999750;28;20124;-33
2022/07/25 01:03:14;;;;;;;9.82;8.05;;;18.50;99.90;;;;;;5003602;28;20045;-35
2022/07/25 01:05:39;;;;;;;11.07;7.97;;;18.60;99.90;;;;;;5003426;28;20036;-33
2022/07/25 01:08:06;;;;;;;13.40;9.10;;;18.50;99.90;;;;;;5004392;28;20466;-34
2022/07/25 01:10:32;;;;;;;11.10;7.97;;;18.40;99.90;;;;;;5002326;28;20068;-33
2022/07/25 01:12:58;;;;;;;11.27;8.70;;;18.40;99.90;;;;;;5005694;28;20030;-33
2022/07/25 01:15:24;;;;;;;11.02;8.80;;;18.30;99.90;;;;;;5001197;28;20037;-32
2022/07/25 01:17:50;;;;;;;10.68;8.15;;;18.30;99.90;;;;;;5001080;28;20097;-32
2022/07/25 01:20:17;;;;;;;10.65;8.02;;;18.30;99.90;;;;;;5001783;28;20407;-33
2022/07/25 01:22:43;;;;;;;11.77;8.50;;;18.40;99.90;;;;;;5000869;28;20587;-32
2022/07/25 01:25:10;;;;;;;9.60;8.52;;;18.40;99.90;;;;;;5000313;28;20653;-34
2022/07/25 01:27:36;;;;;;;12.40;8.38;;;18.50;99.90;;;;;;5002681;28;20026;-33
2022/07/25 01:30:05;;;;;;;10.05;8.23;;;18.50;99.90;;;;;;5002526;28;20033;-33
2022/07/25 01:32:31;;;;;;;9.35;8.27;;;18.50;99.90;;;;;;5001806;28;20182;-32
2022/07/25 01:34:57;;;;;;;16.30;8.80;;;18.40;99.90;;;;;;5001762;28;21079;-32
2022/07/25 01:37:22;;;;;;;10.45;8.20;;;18.40;99.90;;;;;;5002925;28;20049;-33
2022/07/25 01:39:48;;;;;;;11.40;8.40;;;18.30;99.90;;;;;;5001879;28;20026;-33
2022/07/25 01:42:13;;;;;;;9.77;8.02;;;18.30;99.90;;;;;;5003170;28;20026;-33
2022/07/25 01:44:39;;;;;;;10.48;7.55;;;18.30;99.90;;;;;;5001766;28;20038;-33
2022/07/25 01:47:05;;;;;;;10.10;7.72;;;18.30;99.90;;;;;;5003435;28;20073;-32
2022/07/25 01:49:30;;;;;;;10.68;7.65;;;18.30;99.90;;;;;;5003119;28;20959;-32
2022/07/25 01:51:56;;;;;;;10.52;7.80;;;18.30;99.90;;;;;;5004442;28;20390;-33
2022/07/25 01:54:21;;;;;;;10.27;8.30;;;18.40;99.90;;;;;;5004494;28;20499;-34
2022/07/25 01:56:47;;;;;;;9.93;7.53;;;18.40;99.90;;;;;;4999884;28;20042;-33
2022/07/25 01:59:13;;;;;;;13.98;8.15;;;18.30;99.90;;;;;;5000911;28;20032;-33
2022/07/25 02:01:39;;;;;;;9.10;7.55;;;18.10;99.90;;;;;;5001272;28;20060;-33
2022/07/25 02:04:05;;;;;;;9.63;7.47;;;18.10;99.90;;;;;;5004253;28;20030;-33
2022/07/25 02:06:30;;;;;;;10.13;7.45;;;18.10;99.90;;;;;;4998325;28;20026;-32
2022/07/25 02:08:56;;;;;;;8.82;7.50;;;18.20;99.90;;;;;;5000177;28;20030;-33
2022/07/25 02:11:21;;;;;;;9.98;7.63;;;18.20;99.90;;;;;;4999245;28;20057;-32
2022/07/25 02:13:47;;;;;;;11.07;8.00;;;18.10;99.90;;;;;;5002623;28;20076;-32
2022/07/25 02:16:13;;;;;;;9.90;7.80;;;18.00;99.90;;;;;;5001151;28;20034;-33
2022/07/25 02:18:38;;;;;;;11.00;7.78;;;17.70;99.90;;;;;;5003620;28;20390;-32
2022/07/25 02:21:09;;;;;;;12.50;8.15;;;17.80;99.90;;;;;;5001241;28;20544;-33
2022/07/25 02:23:35;;;;;;;10.27;7.95;;;17.60;99.90;;;;;;5001150;28;20030;-34
2022/07/25 02:26:02;;;;;;;9.50;7.72;;;17.60;99.90;;;;;;5002235;28;20026;-32
2022/07/25 02:28:27;;;;;;;10.32;8.35;;;17.60;99.90;;;;;;5002976;28;20029;-35
2022/07/25 02:30:53;;;;;;;9.90;7.88;;;17.60;99.90;;;;;;5000990;28;20510;-34
2022/07/25 02:33:19;;;;;;;8.43;6.97;;;17.50;99.90;;;;;;5003297;28;20455;-32
2022/07/25 02:35:44;;;;;;;7.85;6.38;;;17.50;99.90;;;;;;5003380;28;20034;-33
2022/07/25 02:38:18;;;;;;;10.88;7.20;;;17.30;99.90;;;;;;5000781;28;20034;-33
2022/07/25 02:40:48;;;;;;;9.18;7.07;;;17.30;99.90;;;;;;5004517;28;20037;-33
2022/07/25 02:43:14;;;;;;;10.20;7.50;;;17.30;99.90;;;;;;5004208;28;20088;-33
2022/07/25 02:45:39;;;;;;;11.10;8.65;;;17.40;99.90;;;;;;5002346;28;20093;-32
2022/07/25 02:48:05;;;;;;;11.13;8.57;;;17.10;99.90;;;;;;4999934;28;20030;-33
2022/07/25 02:50:31;;;;;;;10.90;7.97;;;16.70;99.90;;;;;;5000735;28;20061;-33
2022/07/25 02:52:57;;;;;;;10.80;8.25;;;16.80;99.90;;;;;;5003873;28;20050;-34
2022/07/25 02:55:23;;;;;;;10.52;8.40;;;16.90;99.90;;;;;;5002309;28;20037;-33
2022/07/25 02:57:49;;;;;;;14.07;8.25;;;16.90;99.90;;;;;;5002249;28;20395;-32
2022/07/25 03:00:15;;;;;;;10.00;8.00;;;17.00;99.90;;;;;;5002684;28;20403;-32
2022/07/25 03:02:41;;;;;;;11.68;8.23;;;17.10;99.90;;;;;;5001511;28;20041;-33
2022/07/25 03:05:13;;;;;;;8.30;7.22;;;17.00;99.90;;;;;;4999362;28;20376;-33
2022/07/25 03:07:39;;;;;;;12.05;8.60;;;17.10;99.90;;;;;;5000540;28;20021;-32
2022/07/25 03:10:06;;;;;;;12.70;8.65;;;17.20;99.90;;;;;;4998860;28;20026;-32
2022/07/25 03:12:32;;;;;;;11.18;8.43;;;17.00;99.90;;;;;;5019890;28;20108;-33
2022/07/25 03:14:59;;;;;;;11.93;8.35;;;17.00;99.90;;;;;;5006504;28;20117;-33
2022/07/25 03:17:25;;;;;;;11.02;8.48;;;17.10;99.90;;;;;;5005096;28;21398;-33
2022/07/25 03:19:50;;;;;;;9.05;7.00;;;17.10;99.90;;;;;;5006474;28;20030;-34
2022/07/25 03:22:16;;;;;;;8.48;6.75;;;17.10;99.90;;;;;;5004441;28;20029;-32
2022/07/25 03:24:42;;;;;;;9.80;7.57;;;17.10;99.90;;;;;;5006777;28;20498;-34
2022/07/25 03:27:08;;;;;;;10.45;7.93;;;17.30;99.90;;;;;;5004178;28;20021;-33
2022/07/25 03:29:34;;;;;;;12.52;8.77;;;17.20;99.90;;;;;;5006131;28;20129;-33
2022/07/25 03:32:00;;;;;;;10.18;7.82;;;17.20;99.90;;;;;;5005257;28;20499;-33
2022/07/25 03:34:26;;;;;;;10.98;8.48;;;17.20;99.90;;;;;;5003732;28;20069;-34
2022/07/25 03:36:51;;;;;;;11.88;8.73;;;17.20;99.90;;;;;;5006134;28;20037;-32
2022/07/25 03:39:17;;;;;;;10.55;8.75;;;17.30;99.90;;;;;;5007406;28;20034;-32
2022/07/25 03:41:43;;;;;;;11.68;8.38;;;17.30;99.90;;;;;;5004556;28;20022;-32
2022/07/25 03:44:08;;;;;;;11.57;8.32;;;17.20;99.90;;;;;;5005445;28;20034;-33
2022/07/25 03:46:34;;;;;;;11.75;7.55;;;17.20;99.90;;;;;;5004807;28;20439;-32
2022/07/25 03:49:00;;;;;;;9.70;7.72;;;17.20;99.90;;;;;;5006228;28;20036;-32
2022/07/25 03:51:25;;;;;;;9.07;7.53;;;17.10;99.90;;;;;;5002856;28;20018;-33
2022/07/25 03:54:07;;;;;;;8.18;7.20;;;17.10;99.90;;;;;;5004624;28;20148;-34
2022/07/25 03:56:36;;;;;;;9.40;7.30;;;17.10;99.90;;;;;;5001072;28;20026;-33
2022/07/25 03:59:03;;;;;;;7.72;5.90;;;17.10;99.90;;;;;;5004236;28;20022;-32
2022/07/25 04:01:29;;;;;;;6.88;5.07;;;17.00;99.90;;;;;;5003826;28;20507;-33
2022/07/25 04:03:54;;;;;;;7.15;5.63;;;17.00;99.90;;;;;;5000718;28;20036;-33
2022/07/25 04:06:22;;;;;;;10.30;6.97;;;16.90;99.90;;;;;;5002288;28;20026;-33
2022/07/25 04:08:47;;;;;;;13.27;8.57;;;16.80;99.90;;;;;;4999242;28;20385;-34
2022/07/25 04:11:13;;;;;;;11.73;9.02;;;16.80;99.90;;;;;;4998601;28;20022;-32
2022/07/25 04:13:39;;;;;;;11.27;7.97;;;16.80;99.90;;;;;;5002507;28;20030;-35
2022/07/25 04:16:04;;;;;;;8.90;7.70;;;16.90;99.90;;;;;;5005900;28;20034;-34
2022/07/25 04:18:30;;;;;;;8.10;6.95;;;17.00;99.90;;;;;;5003424;28;20686;-32
2022/07/25 04:20:56;;;;;;;10.10;7.55;;;16.90;99.90;;;;;;5002789;28;20029;-34
2022/07/25 04:23:22;;;;;;;11.85;7.97;;;17.00;99.90;;;;;;5002516;28;20030;-33
2022/07/25 04:25:47;;;;;;;9.65;7.93;;;17.00;99.90;;;;;;5005913;28;20533;-32
2022/07/25 04:28:13;;;;;;;9.73;8.05;;;16.90;99.90;;;;;;5003418;28;20038;-32
2022/07/25 04:30:39;;;;;;;10.43;8.20;;;17.00;99.90;;;;;;5004695;28;20061;-33
2022/07/25 04:33:04;;;;;;;9.98;8.00;;;17.10;99.90;;;;;;5005065;28;20068;-32
2022/07/25 04:35:30;;;;;;;12.90;9.05;;;17.10;99.90;;;;;;5003933;28;20542;-33
2022/07/25 04:37:55;;;;;;;11.48;8.40;;;17.20;99.90;;;;;;5003617;28;20033;-33
2022/07/25 04:40:21;;;;;;;10.07;8.23;;;17.10;99.90;;;;;;5003922;28;20034;-33
2022/07/25 04:42:47;;;;;;;11.70;8.85;;;16.90;99.90;;;;;;5003749;28;20033;-33
2022/07/25 04:45:13;;;;;;;12.10;8.73;;;17.00;99.90;;;;;;5019517;28;20033;-33
2022/07/25 04:47:39;;;;;;;11.05;8.68;;;17.10;99.90;;;;;;5000740;28;20506;-34
2022/07/25 04:50:05;;;;;;;12.13;9.15;;;17.30;99.90;;;;;;5004165;28;20433;-34
2022/07/25 04:52:31;;;;;;;11.85;8.60;;;17.50;99.90;;;;;;5000485;28;20113;-33
2022/07/25 04:54:56;;;;;;;10.07;8.55;;;17.40;99.90;;;;;;5000473;28;20064;-33
2022/07/25 04:57:22;;;;;;;11.15;8.85;;;17.60;99.90;;;;;;5018382;28;20614;-33
2022/07/25 04:59:47;;;;;;;11.52;8.50;;;17.50;99.90;;;;;;4995879;28;20034;-33
2022/07/25 05:02:13;;;;;;;15.10;10.07;;;17.50;99.90;;;;;;5001495;28;20092;-33
2022/07/25 05:04:38;;;;;;;9.88;8.55;;;17.70;99.90;;;;;;5001779;28;20034;-33
2022/07/25 05:07:04;;;;;;;10.38;8.68;;;18.00;99.90;;;;;;5001511;28;20528;-33
2022/07/25 05:09:29;;;;;;;10.63;8.55;;;18.20;99.90;;;;;;4997954;28;20051;-33
2022/07/25 05:11:55;;;;;;;10.85;9.45;;;18.30;99.90;;;;;;5002864;28;20026;-32
2022/07/25 05:14:21;;;;;;;10.95;9.00;;;18.20;99.90;;;;;;5001175;28;20093;-32
2022/07/25 05:16:46;;;;;;;12.52;9.23;;;18.30;99.90;;;;;;5003302;28;20045;-35
2022/07/25 05:19:12;;;;;;;12.88;9.90;;;18.50;99.90;;;;;;5004503;28;20373;-32
2022/07/25 05:21:37;;;;;;;12.27;9.15;;;18.60;99.90;;;;;;5002979;28;20033;-33
2022/07/25 05:24:04;;;;;;;13.75;9.75;;;18.80;99.90;;;;;;5004595;28;20411;-32
2022/07/25 05:26:29;;;;;;;15.60;10.50;;;18.90;99.90;;;;;;5004249;28;20029;-32
2022/07/25 05:28:55;;;;;;;13.57;10.18;;;19.00;99.90;;;;;;5001945;28;20034;-34
2022/07/25 05:31:21;;;;;;;44.10;12.70;;;19.00;99.90;;;;;;5003420;28;20034;-32
2022/07/25 05:33:46;;;;;;;14.88;10.23;;;19.10;99.90;;;;;;4999826;28;20038;-33
2022/07/25 05:36:12;;;;;;;16.52;10.55;;;19.30;99.90;;;;;;5001661;28;20191;-32
2022/07/25 05:38:37;;;;;;;13.23;9.57;;;19.50;99.90;;;;;;5003995;28;20021;-33
2022/07/25 05:41:03;;;;;;;14.95;10.85;;;19.60;99.90;;;;;;5000434;28;20117;-33
2022/07/25 05:43:29;;;;;;;13.35;10.30;;;19.80;99.90;;;;;;5000893;28;20040;-33
2022/07/25 05:46:00;;;;;;;12.40;10.02;;;19.90;99.90;;;;;;5001346;28;20029;-33
2022/07/25 05:48:26;;;;;;;11.25;9.32;;;20.10;99.90;;;;;;4999512;28;20140;-32
2022/07/25 05:50:52;;;;;;;12.93;10.57;;;20.20;99.90;;;;;;5004258;28;20104;-32
2022/07/25 05:53:17;;;;;;;14.50;11.07;;;20.30;99.90;;;;;;5004200;28;20155;-33
2022/07/25 05:55:43;;;;;;;11.50;9.40;;;20.40;99.90;;;;;;5001859;28;20058;-32
2022/07/25 05:58:09;;;;;;;12.02;9.77;;;20.60;99.90;;;;;;5004545;28;20029;-32
2022/07/25 06:00:34;;;;;;;11.05;8.60;;;20.80;99.90;;;;;;5001770;28;20029;-32
2022/07/25 06:03:00;;;;;;;13.02;9.45;;;20.90;99.90;;;;;;5001216;28;20046;-32
2022/07/25 06:05:26;;;;;;;13.40;10.30;;;21.10;99.90;;;;;;4997441;28;20026;-34
2022/07/25 06:07:51;;;;;;;12.70;10.07;;;21.30;99.90;;;;;;5004724;28;20037;-33
2022/07/25 06:10:17;;;;;;;13.02;9.98;;;21.40;99.90;;;;;;5001213;28;20030;-32
2022/07/25 06:12:43;;;;;;;14.75;9.98;;;21.60;99.90;;;;;;4999636;28;20029;-33
2022/07/25 06:15:09;;;;;;;12.45;9.55;;;21.70;99.90;;;;;;5001020;28;20085;-33
2022/07/25 06:17:34;;;;;;;12.60;9.93;;;21.90;99.90;;;;;;5001130;28;20108;-32
2022/07/25 06:20:00;;;;;;;11.95;9.10;;;22.10;99.90;;;;;;5003559;28;22244;-33
2022/07/25 06:22:26;;;;;;;12.02;9.80;;;22.20;99.90;;;;;;5005640;28;20030;-32
2022/07/25 06:24:51;;;;;;;13.52;10.38;;;22.30;99.90;;;;;;5001401;28;20501;-32
2022/07/25 06:27:17;;;;;;;13.15;9.52;;;22.20;99.90;;;;;;5004373;28;20037;-32
2022/07/25 06:29:42;;;;;;;10.27;9.18;;;22.40;99.90;;;;;;5003136;28;20022;-32
2022/07/25 06:32:08;;;;;;;11.20;9.35;;;22.70;99.90;;;;;;4998608;28;20129;-32
2022/07/25 06:34:34;;;;;;;11.80;9.55;;;23.00;99.20;;;;;;4999941;28;20621;-32
2022/07/25 06:36:59;;;;;;;12.02;9.45;;;23.30;98.40;;;;;;5000643;28;20112;-32
2022/07/25 06:39:26;;;;;;;11.48;9.60;;;23.40;97.70;;;;;;5000506;28;20048;-33
2022/07/25 06:41:52;;;;;;;12.10;9.73;;;23.50;97.40;;;;;;5000303;28;20537;-32
2022/07/25 06:44:18;;;;;;;12.43;10.05;;;23.40;96.50;;;;;;5003051;28;20038;-32
2022/07/25 06:46:43;;;;;;;11.63;10.00;;;23.40;97.60;;;;;;5003665;28;20079;-32
2022/07/25 06:49:09;;;;;;;12.10;9.75;;;23.60;96.50;;;;;;5008864;28;20029;-33
2022/07/25 06:51:34;;;;;;;13.90;9.60;;;23.60;95.80;;;;;;5006173;28;20026;-33
2022/07/25 06:54:00;;;;;;;14.13;10.00;;;23.70;96.60;;;;;;5008098;28;20499;-33
2022/07/25 06:56:30;;;;;;;11.40;9.50;;;23.80;96.20;;;;;;5007122;28;20472;-33
2022/07/25 06:58:56;;;;;;;13.43;10.77;;;23.90;93.90;;;;;;5005962;28;20022;-34
2022/07/25 07:01:21;;;;;;;12.73;10.55;;;23.90;93.70;;;;;;5007541;28;20046;-33
2022/07/25 07:03:47;;;;;;;13.25;10.50;;;24.10;94.90;;;;;;5005505;28;20403;-33
2022/07/25 07:06:13;;;;;;;12.30;9.82;;;24.30;92.20;;;;;;5003477;28;20031;-34
2022/07/25 07:08:38;;;;;;;12.63;10.20;;;24.40;92.40;;;;;;5006987;28;20519;-34
2022/07/25 07:11:05;;;;;;;12.63;10.05;;;24.50;90.60;;;;;;5003823;28;20030;-34
2022/07/25 07:13:30;;;;;;;13.73;9.40;;;24.80;91.20;;;;;;5000475;28;20053;-34
2022/07/25 07:15:56;;;;;;;13.27;10.32;;;24.80;90.80;;;;;;5004646;28;20144;-33
2022/07/25 07:18:22;;;;;;;12.02;9.77;;;24.90;91.90;;;;;;5002650;28;20030;-33
2022/07/25 07:20:48;;;;;;;11.63;9.50;;;24.80;89.60;;;;;;5006751;28;20639;-33
2022/07/25 07:23:14;;;;;;;11.95;10.32;;;24.80;91.10;;;;;;5004700;28;20037;-33
2022/07/25 07:25:40;;;;;;;11.85;9.77;;;24.80;90.70;;;;;;5007519;28;20398;-34
2022/07/25 07:28:06;;;;;;;10.55;9.23;;;25.10;88.50;;;;;;5007050;28;20059;-33
2022/07/25 07:30:31;;;;;;;11.60;10.15;;;25.40;90.80;;;;;;5006205;28;20056;-33
2022/07/25 07:32:58;;;;;;;13.98;10.45;;;25.50;89.90;;;;;;5006181;28;20030;-34
2022/07/25 07:35:24;;;;;;;11.05;9.80;;;25.70;87.60;;;;;;5006812;28;20045;-33
2022/07/25 07:37:53;;;;;;;10.80;9.38;;;26.00;84.70;;;;;;5004693;28;20026;-33
2022/07/25 07:40:20;;;;;;;12.25;10.52;;;26.20;84.50;;;;;;5004341;28;20402;-35
2022/07/25 07:42:48;;;;;;;10.40;9.30;;;26.30;82.80;;;;;;5008156;28;20030;-33
2022/07/25 07:45:17;;;;;;;12.52;9.10;;;26.40;80.50;;;;;;5005065;28;20507;-33
2022/07/25 07:47:45;;;;;;;12.18;9.40;;;26.50;77.10;;;;;;5003833;28;20037;-33
2022/07/25 07:50:11;;;;;;;11.13;9.00;;;26.60;79.50;;;;;;5005279;28;20072;-33
2022/07/25 07:52:37;;;;;;;11.60;9.95;;;26.50;76.50;;;;;;5003971;28;20077;-33
2022/07/25 07:55:53;;;;;;;13.07;10.70;;;26.30;78.30;;;;;;5004855;28;20040;-35
2022/07/25 07:57:49;;;;;;;12.20;9.63;;;26.60;77.30;;;;;;4998194;28;20045;-33
2022/07/25 08:00:15;;;;;;;11.45;9.88;;;26.70;77.60;;;;;;5004391;28;20778;-33
2022/07/25 08:02:43;;;;;;;11.88;10.40;;;26.80;76.90;;;;;;5006451;28;20045;-33
2022/07/25 08:05:09;;;;;;;13.73;9.60;;;26.80;76.10;;;;;;5004753;28;21018;-33
2022/07/25 08:07:34;;;;;;;12.73;9.95;;;27.10;74.20;;;;;;5007472;28;20029;-33
2022/07/25 08:10:00;;;;;;;11.23;9.63;;;27.30;71.90;;;;;;5006507;28;20050;-34
2022/07/25 08:12:25;;;;;;;11.00;9.90;;;27.80;70.80;;;;;;5006688;28;20041;-34
2022/07/25 08:14:51;;;;;;;11.32;9.18;;;27.60;71.40;;;;;;5007569;28;20380;-34
2022/07/25 08:17:16;;;;;;;10.60;9.50;;;27.60;70.20;;;;;;5003938;28;20038;-33
2022/07/25 08:19:42;;;;;;;11.35;9.60;;;27.50;67.80;;;;;;5004716;28;20491;-33
2022/07/25 08:22:08;;;;;;;10.38;9.27;;;27.60;66.80;;;;;;5006630;28;20101;-34
2022/07/25 08:24:34;;;;;;;11.18;8.93;;;27.80;67.50;;;;;;5005813;28;20797;-33
2022/07/25 08:27:00;;;;;;;11.80;9.57;;;28.20;66.70;;;;;;5005359;28;20030;-33
2022/07/25 08:29:26;;;;;;;14.23;9.10;;;28.50;63.30;;;;;;5004259;28;20087;-33
2022/07/25 08:31:51;;;;;;;10.38;9.30;;;28.60;64.00;;;;;;5004019;28;20392;-33
2022/07/25 08:34:20;;;;;;;13.57;9.75;;;28.50;63.90;;;;;;5002861;28;20087;-33
2022/07/25 08:36:46;;;;;;;12.10;9.90;;;28.50;62.20;;;;;;5003934;28;20109;-33
2022/07/25 08:39:12;;;;;;;10.80;9.55;;;28.40;61.90;;;;;;5002871;28;20125;-33
2022/07/25 08:41:41;;;;;;;9.85;8.88;;;28.50;62.60;;;;;;5007228;28;20104;-33
2022/07/25 08:44:08;;;;;;;11.45;9.52;;;28.80;60.40;;;;;;5002450;28;20026;-33
2022/07/25 08:46:35;;;;;;;12.77;8.65;;;29.10;61.30;;;;;;5003310;28;20029;-31
2022/07/25 08:49:01;;;;;;;10.98;8.80;;;29.30;59.50;;;;;;5006198;28;20033;-31
2022/07/25 08:51:27;;;;;;;11.68;9.07;;;29.10;58.10;;;;;;5004316;28;20029;-32
2022/07/25 08:53:53;;;;;;;10.05;9.02;;;29.20;59.40;;;;;;5002168;28;20081;-31
2022/07/25 08:56:19;;;;;;;10.13;8.68;;;29.10;59.20;;;;;;5004230;28;20022;-31
2022/07/25 08:58:45;;;;;;;11.23;8.30;;;28.90;56.80;;;;;;5004931;28;20041;-31
2022/07/25 09:01:11;;;;;;;12.30;8.88;;;29.10;57.00;;;;;;5007049;28;20085;-31
2022/07/25 09:03:37;;;;;;;10.17;9.13;;;29.20;57.30;;;;;;5003638;28;20037;-31
2022/07/25 09:06:21;;;;;;;10.20;8.75;;;29.20;57.00;;;;;;5004436;28;20358;-34
2022/07/25 09:08:53;;;;;;;10.00;8.88;;;29.50;56.60;;;;;;5002480;28;20088;-32
2022/07/25 09:11:35;;;;;;;8.43;7.38;;;29.60;56.30;;;;;;5001499;28;20038;-32
2022/07/25 09:14:03;;;;;;;9.98;8.98;;;29.60;54.00;;;;;;5002418;28;20037;-32
2022/07/25 09:16:35;;;;;;;9.95;8.75;;;29.70;57.20;;;;;;5004098;28;20168;-33
2022/07/25 09:19:19;;;;;;;10.63;9.00;;;30.20;56.40;;;;;;5004889;28;20687;-32
2022/07/25 09:21:56;;;;;;;10.50;8.75;;;30.10;55.60;;;;;;5003504;28;20030;-32
2022/07/25 09:24:22;;;;;;;12.95;8.38;;;30.40;55.60;;;;;;5005557;28;20049;-34
2022/07/25 09:26:51;;;;;;;9.98;8.98;;;30.30;53.70;;;;;;5004643;28;20491;-32
2022/07/25 09:29:19;;;;;;;11.23;8.82;;;30.40;54.40;;;;;;5005320;28;20109;-32
2022/07/25 09:31:45;;;;;;;9.77;8.77;;;30.50;52.60;;;;;;5005190;28;20041;-32
2022/07/25 09:34:11;;;;;;;9.60;8.65;;;30.70;52.60;;;;;;5003168;28;20037;-32
2022/07/25 09:36:53;;;;;;;8.90;8.00;;;30.60;54.40;;;;;;5004747;28;20050;-33
2022/07/25 09:39:19;;;;;;;9.68;8.73;;;30.40;52.00;;;;;;5004281;28;20034;-33
2022/07/25 09:41:44;;;;;;;12.52;8.90;;;30.40;51.60;;;;;;5000596;28;20215;-32
2022/07/25 09:44:18;;;;;;;9.57;8.57;;;30.50;52.60;;;;;;5002967;28;20034;-32
2022/07/25 09:46:43;;;;;;;8.80;7.95;;;30.80;51.60;;;;;;5004932;28;20046;-33
2022/07/25 09:49:13;;;;;;;9.40;8.45;;;31.00;50.50;;;;;;5000773;28;20032;-33
2022/07/25 09:51:39;;;;;;;10.18;8.38;;;31.30;50.50;;;;;;5005443;28;20037;-32
2022/07/25 09:54:05;;;;;;;9.27;8.32;;;31.40;49.30;;;;;;5001767;28;20046;-32
2022/07/25 09:56:34;;;;;;;9.32;8.30;;;31.50;49.60;;;;;;5002759;28;20034;-33
2022/07/25 09:59:00;;;;;;;8.68;7.82;;;31.90;48.50;;;;;;4998661;28;20030;-35
2022/07/25 10:01:40;;;;;;;12.70;8.00;;;31.80;47.60;;;;;;4998680;28;20083;-33
2022/07/25 10:04:23;;;;;;;9.25;8.32;;;31.60;48.10;;;;;;5003500;28;20125;-34
2022/07/25 10:07:08;;;;;;;10.95;7.07;;;31.80;45.90;;;;;;5003484;28;20022;-33
2022/07/25 10:09:43;;;;;;;7.95;7.15;;;31.50;44.10;;;;;;5004256;28;20446;-33
2022/07/25 10:12:11;;;;;;;8.25;6.88;;;31.50;45.50;;;;;;5002991;28;20021;-32
2022/07/25 10:14:37;;;;;;;9.15;7.32;;;31.90;46.70;;;;;;5004796;28;20026;-33
2022/07/25 10:17:04;;;;;;;7.93;7.13;;;31.60;44.20;;;;;;5002918;28;20571;-32
2022/07/25 10:19:39;;;;;;;7.70;7.00;;;31.80;44.70;;;;;;5005579;28;20391;-32
2022/07/25 10:22:05;;;;;;;9.55;5.80;;;31.80;44.20;;;;;;5018778;28;20606;-33
2022/07/25 10:24:36;;;;;;;6.63;6.03;;;31.90;40.80;;;;;;5003730;28;20056;-33
2022/07/25 10:27:11;;;;;;;7.45;6.55;;;32.30;41.30;;;;;;5003286;28;20225;-34
2022/07/25 10:29:38;;;;;;;7.32;6.63;;;32.30;41.40;;;;;;5000166;28;20949;-34
2022/07/25 10:32:05;;;;;;;;;;;32.10;41.40;;;;;;5002349;28;20038;-33
2022/07/25 10:34:31;;;;;;;7.38;5.47;;;31.90;42.00;;;;;;4999730;28;20344;-32
2022/07/25 10:37:17;;;;;;;7.00;5.95;;;32.00;40.30;;;;;;5001225;28;20048;-32
2022/07/25 10:39:44;;;;;;;6.43;5.82;;;32.00;40.80;;;;;;5001824;28;20037;-33
2022/07/25 10:42:20;;;;;;;6.18;5.55;;;32.10;39.60;;;;;;5000485;28;20030;-33
2022/07/25 10:44:53;;;;;;;6.72;6.13;;;32.30;39.70;;;;;;5003840;28;20034;-33
2022/07/25 10:47:22;;;;;;;4.93;4.45;;;32.10;39.80;;;;;;5003465;28;20025;-32
2022/07/25 10:49:56;;;;;;;6.40;5.90;;;32.00;37.40;;;;;;5000959;28;20034;-33
2022/07/25 10:52:27;;;;;;;5.63;5.13;;;31.80;38.60;;;;;;5001917;28;20538;-32
2022/07/25 10:54:58;;;;;;;7.13;6.38;;;32.10;37.50;;;;;;5002181;28;20527;-33
2022/07/25 10:57:25;;;;;;;7.38;5.25;;;32.10;39.30;;;;;;5004992;28;20038;-32
2022/07/25 10:59:51;;;;;;;5.75;5.25;;;32.10;40.10;;;;;;5003631;28;20457;-33
2022/07/25 11:02:17;;;;;;;5.65;5.10;;;32.00;38.40;;;;;;5001594;28;20046;-32
2022/07/25 11:04:45;;;;;;;5.95;4.88;;;32.10;38.20;;;;;;5002716;28;20034;-32
2022/07/25 11:07:18;;;;;;;5.43;4.90;;;32.40;38.70;;;;;;5002121;28;20041;-33
2022/07/25 11:09:54;;;;;;;9.30;5.05;;;32.60;37.30;;;;;;5000607;28;20034;-33
2022/07/25 11:12:20;;;;;;;5.47;4.60;;;32.70;36.70;;;;;;4999882;28;20109;-33
2022/07/25 11:14:46;;;;;;;4.63;4.22;;;32.70;36.20;;;;;;5003837;28;20251;-32
2022/07/25 11:17:21;;;;;;;4.68;4.20;;;32.50;35.60;;;;;;5001936;28;20037;-32
2022/07/25 11:20:17;;;;;;;5.05;4.55;;;32.50;34.10;;;;;;5000288;28;20099;-32
2022/07/25 11:22:49;;;;;;;4.65;4.32;;;32.30;34.30;;;;;;4992711;28;20053;-32
2022/07/25 11:25:14;;;;;;;4.72;4.32;;;32.30;34.10;;;;;;5003805;28;20533;-33
2022/07/25 11:27:40;;;;;;;6.80;4.55;;;32.50;35.60;;;;;;5003500;28;20025;-32
2022/07/25 11:30:08;;;;;;;5.32;4.93;;;32.50;32.40;;;;;;5003498;28;20503;-33
2022/07/25 11:32:41;;;;;;;5.53;4.10;;;32.50;33.40;;;;;;5000824;28;20491;-32
2022/07/25 11:35:08;;;;;;;5.88;4.07;;;32.50;34.10;;;;;;5007307;28;20502;-32
2022/07/25 11:37:37;;;;;;;4.90;4.38;;;32.70;33.00;;;;;;5008089;28;20104;-32
2022/07/25 11:40:04;;;;;;;4.70;3.95;;;32.60;32.40;;;;;;5006427;28;20369;-33
2022/07/25 11:42:42;;;;;;;3.90;3.58;;;32.50;32.10;;;;;;5004954;28;20490;-32
2022/07/25 11:45:20;;;;;;;4.43;4.00;;;32.50;31.60;;;;;;5007893;28;20064;-32
2022/07/25 11:47:49;;;;;;;4.38;3.97;;;32.60;34.10;;;;;;5006552;28;20116;-32
2022/07/25 11:50:14;;;;;;;4.43;4.03;;;32.70;32.30;;;;;;5005327;28;20034;-33
2022/07/25 11:52:42;;;;;;;5.97;4.25;;;32.60;32.40;;;;;;5005573;28;20018;-32
2022/07/25 11:55:15;;;;;;;4.43;3.55;;;32.70;32.60;;;;;;5007925;28;20458;-32
2022/07/25 11:57:43;;;;;;;6.55;4.72;;;32.70;31.40;;;;;;5006820;28;20088;-32
2022/07/25 12:00:20;;;;;;;7.80;4.45;;;32.70;32.70;;;;;;5007249;28;20026;-33
2022/07/25 12:02:47;;;;;;;4.82;4.22;;;32.80;32.70;;;;;;5005735;28;20038;-34
2022/07/25 12:05:15;;;;;;;4.80;4.38;;;32.70;31.80;;;;;;5003886;28;20026;-33
2022/07/25 12:07:47;;;;;;;5.25;4.22;;;32.60;32.90;;;;;;5005387;28;20030;-31
2022/07/25 12:10:18;;;;;;;4.55;4.07;;;32.50;32.10;;;;;;5002555;28;20038;-31
2022/07/25 12:12:49;;;;;;;4.93;4.43;;;32.60;33.20;;;;;;5006215;28;20403;-31
2022/07/25 12:15:17;;;;;;;7.63;5.57;;;32.50;32.10;;;;;;5007067;28;20452;-31
2022/07/25 12:17:43;;;;;;;5.75;5.25;;;32.60;33.30;;;;;;5007321;28;20650;-31
2022/07/25 12:20:21;;;;;;;5.40;4.90;;;32.70;32.80;;;;;;5006367;28;20026;-31
2022/07/25 12:22:48;;;;;;;6.38;5.78;;;32.70;32.50;;;;;;5006136;28;20034;-31
2022/07/25 12:25:14;;;;;;;;;;;32.70;33.20;;;;;;5006478;28;20399;-33
2022/07/25 12:27:40;;;;;;;6.85;4.38;;;32.90;34.00;;;;;;5006608;28;19913;-31
2022/07/25 12:30:07;;;;;;;7.40;5.10;;;33.00;33.60;;;;;;5007449;28;20083;-32
2022/07/25 12:32:33;;;;;;;6.43;5.65;;;32.90;33.00;;;;;;5004988;28;20038;-32
2022/07/25 12:34:59;;;;;;;6.55;5.53;;;32.90;32.90;;;;;;5007170;28;20038;-32
2022/07/25 12:37:25;;;;;;;6.13;5.57;;;33.10;32.80;;;;;;5006864;28;20033;-32
2022/07/25 12:39:52;;;;;;;6.80;6.15;;;33.10;33.90;;;;;;5005526;28;20025;-32
2022/07/25 12:42:18;;;;;;;6.60;6.00;;;33.10;34.30;;;;;;5005201;28;20038;-32